Grand River, Iowa
Current Conditions -  °F | °C
As of 5:53 AM on Monday 22 Dec 2014 (Local Time) from KLWD Reporting Station
Overcast Overcast  
Wind Chill:   Ceiling: 1200
Heat Index:   Visibility: 9mi
Dew Point:   Wind: 10mph
Humidity: 93%   Direction: 150°SSE
Pressure: 29.64"   Gusts: NA
Location:  40.82°N, 93.96°W
Report Text: KLWD 221153Z AUTO 15009KT 9SM OVC012 04/03 A2964 RMK AO2 RAB40E50 SLP044 P0000 60000 70002 T00390028 10044 20039 56017
Loading
Personal Weather Stations






























Interactive Weather Map New forecast layout! Learn more

10-Day Weather Forecast

Advertisements
Track Severe Weather on mobile